Terminal Aerodrome Forecast
Issued by NWS

Home | Current Version | Previous Version | Text Only | Print | Product List | Glossary On
Versions: 1 2 3 4 5 6 7 8 9 10 11 12 13 14 15 16 17 18 19 20
791
FTUS45 KABQ 181741
TAFGUP
TAF
KGUP 181741Z 1818/1918 VRB05KT P6SM FEW002 BKN040
     FM182000 24013KT P6SM SCT060
     FM190300 23004KT 1 1/2SM BR SKC
     FM190800 21006KT 3/4SM BR SKC
      TEMPO 1912/1915 1/2SM FG BKN002
     FM191500 22006KT 1/4SM FG OVC250=

USA.gov is the U.S. government's official web portal to all federal, state and local government web resources and services.